createdAt,value
2023-04-18T18:11:48.631Z,2.9480
2023-04-18T18:12:51.151Z,2.8851
2023-04-18T18:43:53.371Z,7.3066
2023-04-18T18:44:55.966Z,7.6279
2023-04-18T18:47:23.166Z,9.6325
2023-04-18T18:48:25.943Z,9.0473
2023-04-18T18:49:28.319Z,8.3723
2023-04-18T18:50:30.966Z,8.5162
2023-04-18T18:51:33.519Z,9.4689
2023-04-18T18:52:36.109Z,8.7638
2023-04-18T18:53:40.370Z,8.0318
2023-04-18T18:54:41.634Z,8.4604
2023-04-18T18:55:43.850Z,8.3213
2023-04-18T18:56:46.466Z,8.3673
2023-04-18T18:57:49.037Z,8.9314
2023-04-18T18:58:51.639Z,9.3728
2023-04-18T18:59:55.858Z,8.5309
2023-04-18T19:00:56.841Z,8.6705
2023-04-18T19:01:59.509Z,9.4033
2023-04-18T19:03:02.185Z,9.0839
2023-04-18T19:04:04.881Z,9.3728
2023-04-18T19:05:07.246Z,9.4464
2023-04-18T19:06:09.815Z,9.8911
2023-04-18T19:07:12.430Z,10.1640
2023-04-18T19:08:15.030Z,10.3279
2023-04-18T19:09:17.639Z,10.7331
2023-04-18T19:10:20.211Z,11.0698
2023-04-18T19:11:22.832Z,10.6649
2023-04-18T19:12:25.414Z,10.8940
2023-04-18T19:13:28.452Z,11.3011
2023-04-18T19:14:30.637Z,11.0773
2023-04-18T19:15:33.824Z,11.5142
2023-04-18T19:16:35.904Z,11.0093
2023-04-18T19:17:38.470Z,11.6322
2023-04-18T19:18:41.023Z,11.3740
2023-04-18T19:19:43.648Z,12.1498
2023-04-18T19:20:46.218Z,11.7340
2023-04-18T19:21:48.850Z,11.8471
2023-04-18T19:22:51.421Z,10.7249
2023-04-18T19:23:54.045Z,11.0639
2023-04-18T19:24:56.625Z,10.4906
2023-04-18T19:25:59.252Z,10.0377
2023-04-18T19:27:01.824Z,10.4614
2023-04-18T19:28:04.444Z,10.0944
2023-04-18T19:29:07.016Z,10.5460
2023-04-18T19:30:09.632Z,10.1379
2023-04-18T19:31:12.220Z,10.3990
2023-04-18T19:32:14.833Z,10.6283
2023-04-18T19:33:17.437Z,10.5592
2023-04-18T19:34:20.318Z,11.0834
2023-04-18T19:35:22.636Z,10.9861
2023-04-18T19:36:25.380Z,11.1069
2023-04-18T19:37:27.829Z,10.8532
2023-04-18T19:38:30.447Z,11.1121
2023-04-18T19:39:33.030Z,11.0369
2023-04-18T19:40:35.662Z,10.8636
2023-04-18T19:41:38.226Z,10.5277
2023-04-18T19:42:40.844Z,10.2897
2023-04-18T19:43:43.424Z,10.5244
2023-04-18T19:44:46.056Z,10.0980
2023-04-18T19:45:48.681Z,10.6058
2023-04-18T19:46:51.259Z,10.3949
2023-04-18T19:47:53.881Z,10.1917
2023-04-18T19:48:56.469Z,9.6338
2023-04-18T19:49:59.043Z,10.0548
2023-04-18T19:51:01.733Z,10.0876
2023-04-18T19:52:04.292Z,9.9433
2023-04-18T19:53:06.885Z,9.5622
2023-04-18T19:54:09.483Z,10.4844
2023-04-18T19:55:12.095Z,10.1271
2023-04-18T19:56:14.658Z,10.6411
2023-04-18T19:57:17.295Z,10.0276
2023-04-18T19:58:19.861Z,10.0605
